Inkster, Michigan
Current Conditions -  °F | °C
As of 1:53 AM on Saturday 25 Oct 2014 (Local Time) from KDTW Reporting Station
Haze Haze  
Wind Chill: 44°   Ceiling: 22000
Heat Index: 46°   Visibility: 5mi
Dew Point: 43°   Wind: 5mph
Humidity: 89%   Direction: 190°S
Pressure: 29.94"   Gusts: NA
Location:  42.3°N, 83.31°W
Report Text: KDTW 250553Z 19004KT 5SM BR BKN220 08/06 A2994 RMK AO2 SLP140 T00780061 10139 20078 58014
Loading
Personal Weather Stations






























Interactive Weather Map
Tropical Storm Tracking
New forecast layout! Learn more

10-Day Weather Forecast

Advertisements
Track Severe Weather on mobile